createdAt,value
2017-11-07T00:00:49.581Z,24.80
2017-11-07T00:03:16.341Z,29.70
2017-11-07T00:05:43.084Z,24.33
2017-11-07T00:08:10.617Z,29.87
2017-11-07T00:10:37.357Z,35.60
2017-11-07T00:13:04.089Z,34.70
2017-11-07T00:15:30.835Z,30.63
2017-11-07T00:17:57.584Z,35.77
2017-11-07T00:20:24.336Z,31.37
2017-11-07T00:22:51.141Z,30.60
2017-11-07T00:25:17.892Z,50.13
2017-11-07T00:27:44.654Z,61.87
2017-11-07T00:30:12.156Z,37.67
2017-11-07T00:32:38.888Z,33.97
2017-11-07T00:35:05.641Z,39.90
2017-11-07T00:37:32.388Z,35.63
2017-11-07T00:39:59.135Z,30.23
2017-11-07T00:42:25.873Z,31.27
2017-11-07T00:44:52.643Z,29.30
2017-11-07T00:47:20.332Z,34.97
2017-11-07T00:49:47.098Z,37.30
2017-11-07T00:52:13.823Z,38.67
2017-11-07T00:54:40.581Z,32.57
2017-11-07T00:57:07.331Z,44.40
2017-11-07T00:59:34.109Z,92.10
2017-11-07T01:02:00.944Z,71.40
2017-11-07T01:04:27.694Z,58.33
2017-11-07T01:06:55.208Z,48.97
2017-11-07T01:09:21.979Z,41.33
2017-11-07T01:11:48.701Z,44.13
2017-11-07T01:14:15.456Z,55.30
2017-11-07T01:16:42.965Z,43.50
2017-11-07T01:19:09.718Z,40.80
2017-11-07T01:21:36.449Z,53.90
2017-11-07T01:24:03.200Z,51.87
2017-11-07T01:26:29.963Z,43.07
2017-11-07T01:28:56.704Z,40.13
2017-11-07T01:31:23.469Z,47.13
2017-11-07T01:33:50.233Z,58.47
2017-11-07T01:36:16.979Z,65.17
2017-11-07T01:38:43.736Z,47.00
2017-11-07T01:41:10.476Z,56.83
2017-11-07T01:43:37.233Z,52.27
2017-11-07T01:46:03.978Z,38.80
2017-11-07T01:48:31.044Z,48.40
2017-11-07T01:50:58.548Z,40.80
2017-11-07T01:53:25.399Z,46.40
2017-11-07T01:55:52.173Z,40.33
2017-11-07T01:58:19.667Z,61.30
2017-11-07T02:00:46.404Z,52.43
2017-11-07T02:03:13.133Z,47.37
2017-11-07T02:05:39.890Z,39.30
2017-11-07T02:08:06.646Z,33.07
2017-11-07T02:10:33.369Z,32.10
2017-11-07T02:13:00.096Z,34.53
2017-11-07T02:15:26.882Z,32.10
2017-11-07T02:17:53.616Z,24.50
2017-11-07T02:20:20.397Z,29.90
2017-11-07T02:22:47.133Z,27.13
2017-11-07T02:25:14.629Z,26.43
2017-11-07T02:27:41.372Z,25.20
2017-11-07T02:30:08.107Z,25.07
2017-11-07T02:32:34.851Z,23.60
2017-11-07T02:35:01.616Z,28.13
2017-11-07T02:37:28.367Z,33.33
2017-11-07T02:39:55.115Z,39.20
2017-11-07T02:42:22.621Z,29.13
2017-11-07T02:44:49.381Z,36.47
2017-11-07T02:47:16.106Z,40.27
2017-11-07T02:49:42.884Z,32.17
2017-11-07T02:52:09.609Z,39.40
2017-11-07T02:54:36.366Z,27.43
2017-11-07T02:57:03.888Z,30.67
2017-11-07T02:59:30.628Z,30.37
2017-11-07T03:01:57.394Z,28.23
2017-11-07T03:04:24.918Z,28.80
2017-11-07T03:06:51.683Z,27.47
2017-11-07T03:09:18.430Z,25.37
2017-11-07T03:11:45.155Z,28.57
2017-11-07T03:14:11.905Z,37.57
2017-11-07T03:16:39.438Z,29.00
2017-11-07T03:19:06.223Z,28.47
2017-11-07T03:21:32.972Z,26.20
2017-11-07T03:23:59.701Z,26.03
2017-11-07T03:26:26.449Z,22.33
2017-11-07T03:28:53.203Z,22.30
2017-11-07T03:31:19.932Z,22.97
2017-11-07T03:33:46.664Z,22.63
2017-11-07T03:36:13.423Z,19.63
2017-11-07T03:38:40.160Z,20.17
2017-11-07T03:41:07.085Z,26.13
2017-11-07T03:43:33.850Z,26.50
2017-11-07T03:46:00.594Z,28.23
2017-11-07T03:48:27.330Z,48.47
2017-11-07T03:50:54.075Z,24.33
2017-11-07T03:53:20.808Z,25.83
2017-11-07T03:55:47.726Z,23.80
2017-11-07T03:58:14.452Z,27.40
2017-11-07T04:00:41.198Z,23.90
2017-11-07T04:03:07.948Z,25.17
2017-11-07T04:05:34.684Z,30.33
2017-11-07T04:08:01.432Z,26.30
2017-11-07T04:10:28.252Z,26.50
2017-11-07T04:12:55.753Z,25.47
2017-11-07T04:15:22.488Z,21.00
2017-11-07T04:17:49.249Z,26.80
2017-11-07T04:20:15.977Z,48.20
2017-11-07T04:22:42.879Z,31.67
2017-11-07T04:25:09.639Z,32.57
2017-11-07T04:27:36.493Z,28.40
2017-11-07T04:30:03.250Z,27.37
2017-11-07T04:32:29.972Z,27.40
2017-11-07T04:34:56.725Z,33.23
2017-11-07T04:37:23.492Z,36.20
2017-11-07T04:39:51.004Z,28.37
2017-11-07T04:42:17.754Z,46.73
2017-11-07T04:44:44.485Z,95.13
2017-11-07T04:47:11.232Z,60.70
2017-11-07T04:49:38.009Z,56.77
2017-11-07T04:52:05.679Z,476.80
2017-11-07T04:54:32.451Z,285.23
2017-11-07T04:56:59.188Z,277.53
2017-11-07T04:59:25.939Z,216.20
2017-11-07T05:01:52.676Z,168.73
2017-11-07T05:04:19.436Z,42.70
2017-11-07T05:06:46.194Z,83.73
2017-11-07T05:09:13.865Z,65.17
2017-11-07T05:11:41.393Z,83.30
2017-11-07T05:14:08.118Z,62.67
2017-11-07T05:16:34.856Z,35.90
2017-11-07T05:19:01.605Z,87.57
2017-11-07T05:21:28.440Z,30.63
2017-11-07T05:23:55.180Z,28.47
2017-11-07T05:26:21.992Z,39.30
2017-11-07T05:28:48.728Z,61.90
2017-11-07T05:31:15.492Z,86.53
2017-11-07T05:33:42.236Z,64.43
2017-11-07T05:36:09.000Z,129.27
2017-11-07T05:38:36.526Z,81.97
2017-11-07T05:41:03.259Z,126.03
2017-11-07T05:43:30.004Z,283.13
2017-11-07T05:45:56.741Z,202.00
2017-11-07T05:48:23.493Z,172.40
2017-11-07T05:50:51.012Z,252.60
2017-11-07T05:53:17.835Z,218.53
2017-11-07T05:55:44.548Z,209.03
2017-11-07T05:58:12.091Z,202.70
2017-11-07T06:00:38.829Z,285.57
2017-11-07T06:03:05.564Z,224.33
2017-11-07T06:05:32.324Z,129.13
2017-11-07T06:07:59.827Z,142.13
2017-11-07T06:10:26.594Z,209.90
2017-11-07T06:12:53.362Z,66.83
2017-11-07T06:15:20.133Z,55.40
2017-11-07T06:17:46.886Z,66.40
2017-11-07T06:20:13.624Z,156.87
2017-11-07T06:22:40.366Z,105.93
2017-11-07T06:25:07.134Z,92.97
2017-11-07T06:27:33.883Z,95.20
2017-11-07T06:30:00.624Z,152.93
2017-11-07T06:32:27.416Z,82.63
2017-11-07T06:34:54.177Z,87.60
2017-11-07T06:37:20.923Z,41.00
2017-11-07T06:39:47.653Z,31.07
2017-11-07T06:42:14.420Z,56.00
2017-11-07T06:44:41.170Z,111.37
2017-11-07T06:47:08.864Z,54.70
2017-11-07T06:49:35.657Z,40.33
2017-11-07T06:52:02.359Z,45.17
2017-11-07T06:54:29.120Z,42.40
2017-11-07T06:56:55.856Z,39.47
2017-11-07T06:59:22.623Z,36.50
2017-11-07T07:01:49.384Z,36.10
2017-11-07T07:04:16.342Z,30.87
2017-11-07T07:06:43.108Z,35.53
2017-11-07T07:09:09.846Z,27.70
2017-11-07T07:11:36.613Z,26.60
2017-11-07T07:14:03.352Z,30.73
2017-11-07T07:16:30.127Z,37.93
2017-11-07T07:18:56.864Z,40.97
2017-11-07T07:21:23.610Z,35.00
2017-11-07T07:23:50.341Z,38.13
2017-11-07T07:26:17.116Z,39.57
2017-11-07T07:28:43.855Z,38.73
2017-11-07T07:31:10.600Z,38.07
2017-11-07T07:33:37.392Z,32.30
2017-11-07T07:36:04.932Z,36.40
2017-11-07T07:38:31.673Z,39.37
2017-11-07T07:40:59.188Z,33.90
2017-11-07T07:43:25.944Z,35.33
2017-11-07T07:45:52.684Z,35.03
2017-11-07T07:48:20.186Z,36.00
2017-11-07T07:50:46.937Z,37.70
2017-11-07T07:53:13.667Z,32.73
2017-11-07T07:55:40.440Z,35.83
2017-11-07T07:58:07.169Z,37.40
2017-11-07T08:00:33.929Z,38.67
2017-11-07T08:03:00.686Z,35.87
2017-11-07T08:05:27.433Z,29.30
2017-11-07T08:07:54.161Z,32.60
2017-11-07T08:10:20.918Z,31.00
2017-11-07T08:12:47.646Z,36.97
2017-11-07T08:15:14.409Z,31.10
2017-11-07T08:17:41.931Z,35.30
2017-11-07T08:20:08.816Z,33.43
2017-11-07T08:22:36.423Z,36.30
2017-11-07T08:25:03.161Z,33.43
2017-11-07T08:27:29.920Z,29.77
2017-11-07T08:29:56.672Z,24.90
2017-11-07T08:32:24.183Z,24.43
2017-11-07T08:34:50.930Z,30.53
2017-11-07T08:37:17.698Z,29.43
2017-11-07T08:39:44.491Z,29.47
2017-11-07T08:42:11.223Z,29.90
2017-11-07T08:44:37.956Z,24.87
2017-11-07T08:47:04.711Z,28.17
2017-11-07T08:49:31.524Z,27.30
2017-11-07T08:51:58.252Z,26.20
2017-11-07T08:54:25.756Z,22.73
2017-11-07T08:56:52.545Z,28.87
2017-11-07T08:59:19.264Z,28.33
2017-11-07T09:01:46.161Z,29.23
2017-11-07T09:04:12.876Z,29.67
2017-11-07T09:06:41.896Z,31.20
2017-11-07T09:09:08.663Z,32.00
2017-11-07T09:11:35.437Z,33.43
2017-11-07T09:14:03.048Z,34.37
2017-11-07T09:16:29.797Z,48.60
2017-11-07T09:18:56.586Z,42.57
2017-11-07T09:21:23.330Z,52.43
2017-11-07T09:23:50.824Z,39.20
2017-11-07T09:26:17.596Z,60.87
2017-11-07T09:28:44.325Z,48.37
2017-11-07T09:31:13.016Z,53.40
2017-11-07T09:33:40.533Z,44.60
2017-11-07T09:36:07.341Z,41.03
2017-11-07T09:38:34.080Z,46.03
2017-11-07T09:41:00.812Z,40.40
2017-11-07T09:43:28.344Z,55.63
2017-11-07T09:45:55.071Z,42.10
2017-11-07T09:48:21.856Z,40.33
2017-11-07T09:50:49.372Z,42.73
2017-11-07T09:53:16.097Z,46.77
2017-11-07T09:55:42.840Z,45.77
2017-11-07T09:58:09.593Z,41.87
2017-11-07T10:00:36.388Z,43.83
2017-11-07T10:03:03.140Z,46.00
2017-11-07T10:05:29.884Z,42.53
2017-11-07T10:07:56.623Z,45.60
2017-11-07T10:10:23.358Z,48.07
2017-11-07T10:12:50.116Z,46.47
2017-11-07T10:15:16.872Z,44.17
2017-11-07T10:17:43.605Z,44.70
2017-11-07T10:20:12.271Z,49.50
2017-11-07T10:22:39.005Z,42.97
2017-11-07T10:25:05.749Z,44.03
2017-11-07T10:27:32.504Z,43.93
2017-11-07T10:29:59.228Z,46.67
2017-11-07T10:32:25.946Z,42.07
2017-11-07T10:34:56.459Z,41.63
2017-11-07T10:37:23.209Z,39.53
2017-11-07T10:39:49.941Z,36.73
2017-11-07T10:42:16.704Z,40.93
2017-11-07T10:44:43.434Z,38.73
2017-11-07T10:47:10.206Z,38.97
2017-11-07T10:49:37.222Z,39.17
2017-11-07T10:52:03.980Z,38.70
2017-11-07T10:54:30.728Z,45.40
2017-11-07T10:56:57.489Z,45.27
2017-11-07T10:59:24.999Z,46.27
2017-11-07T11:01:51.763Z,47.40
2017-11-07T11:04:18.488Z,47.50
2017-11-07T11:06:45.222Z,59.13
2017-11-07T11:09:11.990Z,46.00
2017-11-07T11:11:39.612Z,43.17
2017-11-07T11:14:06.337Z,43.50
2017-11-07T11:16:33.098Z,42.70
2017-11-07T11:18:59.868Z,42.83
2017-11-07T11:21:27.393Z,42.13
2017-11-07T11:23:54.127Z,42.63
2017-11-07T11:26:20.889Z,42.90
2017-11-07T11:28:47.617Z,43.50
2017-11-07T11:31:14.402Z,37.77
2017-11-07T11:33:41.162Z,39.57
2017-11-07T11:36:07.978Z,39.70
2017-11-07T11:38:34.724Z,38.37
2017-11-07T11:41:01.459Z,42.50
2017-11-07T11:43:28.968Z,36.00
2017-11-07T11:45:55.718Z,41.10
2017-11-07T11:48:22.445Z,36.00
2017-11-07T11:50:49.200Z,38.03
2017-11-07T11:53:15.933Z,37.37
2017-11-07T11:55:42.716Z,40.20
2017-11-07T11:58:09.444Z,38.30
2017-11-07T12:00:36.957Z,34.47
2017-11-07T12:03:03.700Z,32.53
2017-11-07T12:05:30.489Z,33.97
2017-11-07T12:07:57.962Z,32.60
2017-11-07T12:10:24.721Z,35.07
2017-11-07T12:12:51.445Z,30.40
2017-11-07T12:15:18.191Z,27.47
2017-11-07T12:17:44.965Z,30.00
2017-11-07T12:20:11.857Z,29.17
2017-11-07T12:22:38.611Z,23.57
2017-11-07T12:25:05.361Z,24.67
2017-11-07T12:27:32.124Z,24.00
2017-11-07T12:29:59.620Z,25.10
2017-11-07T12:32:26.366Z,21.57
2017-11-07T12:34:53.123Z,22.27
2017-11-07T12:37:19.875Z,24.47
2017-11-07T12:39:46.619Z,26.30
2017-11-07T12:42:13.374Z,22.63
2017-11-07T12:44:40.141Z,21.53
2017-11-07T12:47:06.872Z,22.43
2017-11-07T12:49:34.394Z,19.80
2017-11-07T12:52:01.135Z,15.27
2017-11-07T12:54:27.941Z,14.27
2017-11-07T12:56:54.677Z,12.87
2017-11-07T12:59:21.442Z,18.80
2017-11-07T13:01:48.212Z,17.30
2017-11-07T13:04:14.971Z,17.30
2017-11-07T13:06:42.521Z,17.30
2017-11-07T13:09:09.245Z,13.23
2017-11-07T13:11:35.985Z,12.87
2017-11-07T13:14:02.753Z,11.20
2017-11-07T13:16:30.255Z,10.73
2017-11-07T13:18:57.008Z,9.90
2017-11-07T13:21:23.750Z,10.23
2017-11-07T13:23:50.512Z,11.03
2017-11-07T13:26:18.014Z,10.50
2017-11-07T13:28:44.798Z,9.90
2017-11-07T13:31:11.528Z,12.80
2017-11-07T13:33:38.296Z,13.87
2017-11-07T13:36:05.806Z,13.73
2017-11-07T13:38:32.566Z,13.07
2017-11-07T13:40:59.393Z,12.30
2017-11-07T13:43:26.134Z,13.33
2017-11-07T13:45:52.944Z,15.27
2017-11-07T13:48:19.705Z,16.90
2017-11-07T13:50:46.451Z,13.57
2017-11-07T13:53:13.261Z,19.93
2017-11-07T13:55:40.735Z,16.97
2017-11-07T13:58:07.543Z,18.10
2017-11-07T14:00:35.037Z,19.93
2017-11-07T14:03:01.765Z,18.03
2017-11-07T14:05:28.514Z,20.37
2017-11-07T14:07:55.287Z,19.23
2017-11-07T14:10:22.976Z,17.90
2017-11-07T14:12:49.733Z,17.03
2017-11-07T14:15:16.473Z,55.27
2017-11-07T14:17:43.245Z,53.97
2017-11-07T14:20:09.990Z,58.23
2017-11-07T14:22:36.757Z,58.30
2017-11-07T14:25:06.203Z,40.40
2017-11-07T14:27:32.946Z,42.13
2017-11-07T14:29:59.759Z,39.57
2017-11-07T14:32:27.309Z,40.33
2017-11-07T14:34:54.805Z,38.00
2017-11-07T14:37:21.547Z,36.50
2017-11-07T14:39:48.317Z,36.90
2017-11-07T14:42:15.834Z,36.17
2017-11-07T14:44:42.555Z,40.63
2017-11-07T14:47:09.309Z,38.20
2017-11-07T14:49:36.072Z,31.27
2017-11-07T14:52:02.869Z,34.73
2017-11-07T14:54:29.601Z,31.63
2017-11-07T14:56:56.369Z,39.03
2017-11-07T14:59:23.128Z,31.93
2017-11-07T15:01:49.871Z,39.30
2017-11-07T15:04:16.613Z,40.07
2017-11-07T15:06:43.344Z,41.57
2017-11-07T15:09:10.237Z,46.33
2017-11-07T15:11:37.799Z,46.73
2017-11-07T15:14:05.340Z,51.63
2017-11-07T15:16:32.884Z,52.53
2017-11-07T15:19:01.239Z,54.80
2017-11-07T15:21:27.989Z,63.20
2017-11-07T15:23:54.736Z,69.20
2017-11-07T15:26:22.331Z,72.00
2017-11-07T15:28:49.073Z,74.13
2017-11-07T15:31:15.821Z,71.83
2017-11-07T15:33:42.559Z,80.93
2017-11-07T15:36:09.421Z,76.47
2017-11-07T15:38:36.156Z,83.00
2017-11-07T15:41:02.904Z,73.33
2017-11-07T15:43:29.662Z,78.93
2017-11-07T15:45:56.408Z,86.03
2017-11-07T15:48:23.175Z,94.60
2017-11-07T15:50:50.664Z,91.23
2017-11-07T15:53:17.438Z,90.90
2017-11-07T15:55:44.184Z,85.73
2017-11-07T15:58:11.695Z,91.63
2017-11-07T16:00:38.466Z,85.70
2017-11-07T16:03:05.226Z,86.93
2017-11-07T16:05:32.751Z,88.37
2017-11-07T16:07:59.479Z,88.37
2017-11-07T16:10:26.225Z,88.17
2017-11-07T16:12:52.984Z,92.10
2017-11-07T16:15:19.739Z,91.00
2017-11-07T16:17:47.250Z,89.50
2017-11-07T16:20:13.988Z,89.60
2017-11-07T16:22:40.762Z,91.03
2017-11-07T16:25:07.493Z,93.70
2017-11-07T16:27:34.278Z,89.03
2017-11-07T16:30:00.998Z,83.53
2017-11-07T16:32:28.557Z,83.73
2017-11-07T16:34:56.061Z,88.53
2017-11-07T16:37:22.816Z,83.97
2017-11-07T16:39:49.552Z,79.20
2017-11-07T16:42:16.292Z,86.73
2017-11-07T16:44:43.043Z,82.67
2017-11-07T16:47:09.841Z,79.03
2017-11-07T16:49:36.580Z,74.60
2017-11-07T16:52:03.373Z,79.50
2017-11-07T16:54:31.023Z,82.10
2017-11-07T16:56:57.808Z,79.10
2017-11-07T16:59:26.263Z,74.47
2017-11-07T17:01:53.825Z,83.43
2017-11-07T17:04:21.335Z,78.97
2017-11-07T17:06:48.072Z,73.67
2017-11-07T17:09:14.822Z,83.37
2017-11-07T17:11:41.568Z,77.73
2017-11-07T17:14:08.454Z,80.37
2017-11-07T17:16:35.218Z,79.27
2017-11-07T17:19:01.978Z,75.13
2017-11-07T17:21:28.732Z,81.60
2017-11-07T17:23:55.486Z,83.07
2017-11-07T17:26:22.987Z,84.43
2017-11-07T17:28:49.768Z,75.93
2017-11-07T17:31:16.512Z,74.93
2017-11-07T17:33:43.302Z,82.00
2017-11-07T17:36:10.049Z,84.67
2017-11-07T17:38:36.801Z,85.07
2017-11-07T17:41:03.616Z,88.60
2017-11-07T17:43:30.365Z,85.13
2017-11-07T17:45:57.120Z,84.53
2017-11-07T17:48:23.878Z,81.97
2017-11-07T17:50:50.628Z,84.50
2017-11-07T17:53:17.383Z,80.30
2017-11-07T17:55:44.195Z,81.67
2017-11-07T17:58:10.946Z,74.30
2017-11-07T18:00:37.687Z,79.33
2017-11-07T18:03:04.429Z,82.03
2017-11-07T18:05:31.933Z,75.97
2017-11-07T18:07:58.697Z,75.60
2017-11-07T18:10:25.440Z,71.50
2017-11-07T18:12:52.223Z,72.20
2017-11-07T18:15:19.726Z,79.23
2017-11-07T18:17:46.466Z,66.37
2017-11-07T18:20:13.190Z,72.60
2017-11-07T18:22:39.956Z,70.67
2017-11-07T18:25:06.711Z,64.97
2017-11-07T18:27:34.957Z,75.50
2017-11-07T18:30:01.715Z,74.77
2017-11-07T18:32:28.524Z,87.03
2017-11-07T18:34:55.286Z,83.63
2017-11-07T18:37:22.026Z,74.33
2017-11-07T18:39:48.783Z,76.77
2017-11-07T18:42:16.334Z,72.93
2017-11-07T18:44:43.093Z,73.70
2017-11-07T18:47:09.853Z,67.90
2017-11-07T18:49:36.591Z,70.07
2017-11-07T18:52:03.345Z,71.23
2017-11-07T18:54:30.084Z,72.13
2017-11-07T18:56:56.856Z,72.57
2017-11-07T18:59:23.600Z,68.77
2017-11-07T19:01:50.490Z,65.67
2017-11-07T19:04:18.161Z,63.73
2017-11-07T19:06:44.891Z,69.10
2017-11-07T19:09:11.656Z,65.67
2017-11-07T19:11:38.417Z,58.60
2017-11-07T19:14:05.195Z,62.90
2017-11-07T19:16:32.662Z,57.03
2017-11-07T19:19:00.174Z,66.97
2017-11-07T19:21:26.951Z,59.20
2017-11-07T19:23:53.743Z,64.77
2017-11-07T19:26:20.518Z,59.60
2017-11-07T19:28:48.077Z,58.93
2017-11-07T19:31:15.701Z,71.73
2017-11-07T19:33:42.440Z,75.70
2017-11-07T19:36:09.193Z,76.30
2017-11-07T19:38:35.945Z,70.97
2017-11-07T19:41:02.761Z,80.00
2017-11-07T19:43:29.530Z,72.53
2017-11-07T19:45:57.053Z,73.63
2017-11-07T19:48:24.060Z,79.00
2017-11-07T19:50:51.558Z,79.07
2017-11-07T19:53:18.328Z,77.90
2017-11-07T19:55:45.089Z,81.73
2017-11-07T19:58:11.883Z,83.73
2017-11-07T20:00:38.677Z,77.83
2017-11-07T20:03:06.181Z,80.70
2017-11-07T20:05:32.929Z,78.13
2017-11-07T20:07:59.700Z,81.80
2017-11-07T20:10:26.444Z,70.10
2017-11-07T20:12:53.190Z,78.27
2017-11-07T20:15:19.966Z,75.23
2017-11-07T20:17:46.723Z,82.50
2017-11-07T20:20:13.466Z,74.43
2017-11-07T20:22:40.216Z,69.43
2017-11-07T20:25:06.940Z,78.20
2017-11-07T20:27:33.717Z,69.80
2017-11-07T20:30:00.535Z,72.83
2017-11-07T20:32:27.278Z,74.10
2017-11-07T20:34:54.827Z,72.13
2017-11-07T20:37:21.606Z,74.97
2017-11-07T20:39:48.374Z,69.43
2017-11-07T20:42:15.143Z,69.23
2017-11-07T20:44:42.670Z,66.67
2017-11-07T20:47:09.440Z,62.30
2017-11-07T20:49:36.952Z,65.53
2017-11-07T20:52:04.549Z,63.97
2017-11-07T20:54:31.316Z,69.90
2017-11-07T20:56:58.913Z,67.80
2017-11-07T20:59:25.641Z,68.33
2017-11-07T21:01:52.371Z,67.07
2017-11-07T21:04:19.168Z,76.73
2017-11-07T21:06:45.926Z,73.97
2017-11-07T21:09:13.426Z,72.67
2017-11-07T21:11:40.166Z,70.03
2017-11-07T21:14:06.952Z,66.90
2017-11-07T21:16:34.465Z,68.47
2017-11-07T21:19:01.216Z,69.03
2017-11-07T21:21:28.008Z,66.97
2017-11-07T21:23:55.508Z,70.73
2017-11-07T21:26:22.265Z,76.03
2017-11-07T21:28:49.022Z,68.90
2017-11-07T21:31:15.788Z,66.70
2017-11-07T21:33:42.526Z,74.33
2017-11-07T21:36:09.262Z,70.40
2017-11-07T21:38:36.029Z,66.20
2017-11-07T21:41:02.757Z,70.27
2017-11-07T21:43:29.508Z,66.87
2017-11-07T21:45:56.270Z,69.33
2017-11-07T21:48:23.015Z,66.73
2017-11-07T21:50:49.784Z,63.00
2017-11-07T21:53:16.519Z,72.73
2017-11-07T21:55:44.052Z,67.80
2017-11-07T21:58:10.807Z,68.03
2017-11-07T22:00:38.308Z,69.53
2017-11-07T22:03:05.054Z,72.60
2017-11-07T22:05:31.817Z,69.37
2017-11-07T22:07:58.568Z,73.77
2017-11-07T22:10:25.310Z,71.13
2017-11-07T22:12:52.049Z,73.33
2017-11-07T22:15:19.579Z,70.00
2017-11-07T22:17:46.313Z,73.23
2017-11-07T22:20:13.070Z,73.37
2017-11-07T22:22:39.936Z,73.73
2017-11-07T22:25:07.457Z,72.23
2017-11-07T22:27:34.189Z,79.17
2017-11-07T22:30:00.949Z,72.17
2017-11-07T22:32:27.752Z,73.97
2017-11-07T22:34:55.232Z,66.43
2017-11-07T22:37:21.973Z,78.47
2017-11-07T22:39:48.709Z,76.47
2017-11-07T22:42:15.466Z,87.03
2017-11-07T22:44:42.201Z,81.93
2017-11-07T22:47:10.462Z,84.13
2017-11-07T22:49:37.205Z,81.80
2017-11-07T22:52:03.968Z,80.97
2017-11-07T22:54:30.697Z,88.50
2017-11-07T22:56:57.444Z,84.73
2017-11-07T22:59:24.195Z,74.00
2017-11-07T23:01:50.952Z,80.37
2017-11-07T23:04:17.719Z,80.23
2017-11-07T23:06:44.468Z,68.27
2017-11-07T23:09:11.384Z,70.93
2017-11-07T23:11:38.121Z,67.93
2017-11-07T23:14:04.876Z,73.00
2017-11-07T23:16:31.606Z,75.37
2017-11-07T23:18:58.358Z,66.83
2017-11-07T23:21:25.096Z,65.87
2017-11-07T23:23:51.880Z,71.73
2017-11-07T23:26:18.654Z,65.30
2017-11-07T23:28:46.133Z,68.53
2017-11-07T23:31:12.893Z,68.37
2017-11-07T23:33:39.644Z,70.90
2017-11-07T23:36:06.415Z,64.97
2017-11-07T23:38:33.174Z,67.47
2017-11-07T23:40:59.893Z,67.80
2017-11-07T23:43:26.648Z,64.70
2017-11-07T23:45:53.403Z,64.27
2017-11-07T23:48:20.160Z,64.23
2017-11-07T23:50:46.897Z,59.03
2017-11-07T23:53:13.668Z,57.60
2017-11-07T23:55:41.160Z,59.67
2017-11-07T23:58:07.913Z,64.47
